Time;durP1;ratioP1;P1;durP2;ratioP2;P2;SDS_P1;SDS_P2;PMS_P1;PMS_P2;Temp;Humidity;BMP_temperature;BMP_pressure;BME280_temperature;BME280_humidity;BME280_pressure;Samples;Min_cycle;Max_cycle;Signal;HPM_P1;HPM_P2
2023/03/15 00:01:19;;;;;;;;;;;;;;;4.51;73.74;99663.96;107607;1256;62995;-84
2023/03/15 00:03:55;;;;;;;;;;;;;;;4.52;73.81;99671.61;107358;1257;74643;-84
2023/03/15 00:06:22;;;;;;;;;;;;;;;4.53;73.73;99673.04;107174;1257;124221;-84
2023/03/15 00:08:51;;;;;;;;;;;;;;;4.54;73.75;99679.66;107273;1255;71125;-84
2023/03/15 00:11:20;;;;;;;;;;;;;;;4.54;73.74;99684.36;107586;1257;124395;-84
2023/03/15 00:14:05;;;;;;;;;;;;;;;4.53;73.79;99692.67;107469;1257;60322;-84
2023/03/15 00:16:41;;;;;;;;;;;;;;;4.50;73.71;99698.84;107274;1257;123923;-84
2023/03/15 00:19:09;;;;;;;;;;;;;;;4.47;73.74;99700.46;107318;1256;66710;-84
2023/03/15 00:21:38;;;;;;;;;;;;;;;4.43;73.82;99701.39;107285;1258;72423;-84
2023/03/15 00:24:26;;;;;;;;;;;;;;;4.40;73.81;99705.66;107543;1258;123724;-84
2023/03/15 00:26:56;;;;;;;;;;;;;;;4.35;73.79;99707.39;107446;1256;60093;-84
2023/03/15 00:29:23;;;;;;;;;;;;;;;4.30;73.76;99699.58;107388;1256;123956;-85
2023/03/15 00:32:08;;;;;;;;;;;;;;;4.25;73.82;99706.35;107512;1257;65869;-87
2023/03/15 00:35:01;;;;;;;;;;;;;;;4.20;73.96;99712.27;107156;1257;124649;-86
2023/03/15 00:37:30;;;;;;;;;;;;;;;4.19;73.99;99721.77;107141;1257;60173;-87
2023/03/15 00:39:58;;;;;;;;;;;;;;;4.16;74.01;99724.45;107071;1257;60060;-84
2023/03/15 00:42:27;;;;;;;;;;;;;;;4.15;74.05;99722.48;107190;1257;124417;-84
2023/03/15 00:44:55;;;;;;;;;;;;;;;4.14;74.12;99723.70;107452;1257;67147;-84
2023/03/15 00:47:29;;;;;;;;;;;;;;;4.12;74.09;99729.54;107296;1256;124916;-84
2023/03/15 00:49:56;;;;;;;;;;;;;;;4.10;74.18;99739.20;107198;1257;61160;-84
2023/03/15 00:52:25;;;;;;;;;;;;;;;4.09;74.05;99745.23;107367;1257;59987;-84
2023/03/15 00:54:58;;;;;;;;;;;;;;;4.09;74.25;99759.80;107338;1256;123399;-84
2023/03/15 00:57:32;;;;;;;;;;;;;;;4.09;74.22;99759.48;107574;1256;66771;-83
2023/03/15 01:00:03;;;;;;;;;;;;;;;4.08;74.15;99757.16;107487;1257;123964;-84
2023/03/15 01:02:31;;;;;;;;;;;;;;;4.05;74.10;99763.14;107504;1254;61264;-84
2023/03/15 01:05:13;;;;;;;;;;;;;;;4.03;74.22;99770.20;107208;1257;124531;-84
2023/03/15 01:07:57;;;;;;;;;;;;;;;4.01;74.06;99773.24;107321;1257;74694;-83
2023/03/15 01:10:27;;;;;;;;;;;;;;;3.98;74.13;99779.74;107308;1260;66199;-84
2023/03/15 01:12:55;;;;;;;;;;;;;;;3.93;74.05;99782.67;107235;1258;70928;-84
2023/03/15 01:15:22;;;;;;;;;;;;;;;3.88;74.06;99783.34;107191;1255;61343;-85
2023/03/15 01:17:49;;;;;;;;;;;;;;;3.82;74.10;99782.98;107359;1256;60459;-84
2023/03/15 01:20:34;;;;;;;;;;;;;;;3.77;74.17;99788.00;107716;1254;74935;-84
2023/03/15 01:23:07;;;;;;;;;;;;;;;3.72;74.06;99790.24;107644;1257;66754;-84
2023/03/15 01:25:35;;;;;;;;;;;;;;;3.67;74.25;99789.20;107691;1256;72661;-85
2023/03/15 01:28:03;;;;;;;;;;;;;;;3.63;74.37;99797.73;107388;1256;61265;-85
2023/03/15 01:30:36;;;;;;;;;;;;;;;3.60;74.29;99800.73;107234;1256;124974;-84
2023/03/15 01:33:10;;;;;;;;;;;;;;;3.60;74.46;99807.67;107179;1257;74476;-84
2023/03/15 01:35:37;;;;;;;;;;;;;;;3.61;74.61;99809.42;107238;1255;124538;-84
2023/03/15 01:38:04;;;;;;;;;;;;;;;3.61;74.73;99825.23;107541;1262;72732;-84
2023/03/15 01:40:50;;;;;;;;;;;;;;;3.61;74.72;99824.40;107582;1256;61298;-84
2023/03/15 01:43:45;;;;;;;;;;;;;;;3.61;74.71;99827.84;107586;1256;60116;-84
2023/03/15 01:46:19;;;;;;;;;;;;;;;3.61;74.71;99833.21;107817;1256;74409;-84
2023/03/15 01:48:50;;;;;;;;;;;;;;;3.60;74.69;99838.73;108059;1256;124535;-84
2023/03/15 01:51:25;;;;;;;;;;;;;;;3.61;74.74;99838.94;107869;1256;71461;-84
2023/03/15 01:54:04;;;;;;;;;;;;;;;3.62;74.60;99846.59;107485;1263;124288;-84
2023/03/15 01:56:39;;;;;;;;;;;;;;;3.63;74.69;99849.25;107653;1257;60592;-84
2023/03/15 01:59:07;;;;;;;;;;;;;;;3.64;74.69;99855.52;107765;1255;124271;-84
2023/03/15 02:01:36;;;;;;;;;;;;;;;3.65;74.69;99857.98;107462;1255;68191;-83
2023/03/15 02:04:08;;;;;;;;;;;;;;;3.66;74.53;99866.00;107454;1256;71440;-83
2023/03/15 02:06:35;;;;;;;;;;;;;;;3.65;74.58;99874.30;107513;1256;123881;-85
2023/03/15 02:09:03;;;;;;;;;;;;;;;3.64;74.46;99879.27;108173;1255;59292;-84
2023/03/15 02:11:32;;;;;;;;;;;;;;;3.63;74.45;99886.89;107903;1257;124782;-84
2023/03/15 02:13:59;;;;;;;;;;;;;;;3.63;74.57;99894.70;108006;1258;67352;-85
2023/03/15 02:16:26;;;;;;;;;;;;;;;3.64;74.67;99904.98;107725;1258;73054;-85
2023/03/15 02:18:53;;;;;;;;;;;;;;;3.66;74.59;99909.39;107463;1262;124451;-85
2023/03/15 02:21:32;;;;;;;;;;;;;;;3.68;74.73;99914.00;107589;1257;60179;-84
2023/03/15 02:24:05;;;;;;;;;;;;;;;3.72;74.62;99923.13;107471;1256;124518;-84
2023/03/15 02:26:32;;;;;;;;;;;;;;;3.72;74.61;99931.15;107867;1257;66416;-83
2023/03/15 02:29:00;;;;;;;;;;;;;;;3.71;74.41;99932.84;107972;1257;124754;-83
2023/03/15 02:31:36;;;;;;;;;;;;;;;3.66;74.21;99930.20;107966;1257;59329;-84
2023/03/15 02:34:06;;;;;;;;;;;;;;;3.62;74.29;99930.04;107926;1256;60317;-83
2023/03/15 02:36:33;;;;;;;;;;;;;;;3.54;74.02;99931.65;108276;1255;125077;-83
2023/03/15 02:39:01;;;;;;;;;;;;;;;3.46;74.12;99932.52;107978;1257;67018;-83
2023/03/15 02:41:35;;;;;;;;;;;;;;;3.37;74.06;99939.82;107841;1256;124608;-84
2023/03/15 02:44:06;;;;;;;;;;;;;;;3.28;74.13;99941.55;107715;1256;61191;-85
2023/03/15 02:46:35;;;;;;;;;;;;;;;3.21;74.05;99954.75;107812;1257;59484;-84
2023/03/15 02:49:02;;;;;;;;;;;;;;;3.14;74.20;99960.69;107940;1257;124254;-83
2023/03/15 02:51:29;;;;;;;;;;;;;;;3.06;74.21;99965.22;108052;1256;66596;-84
2023/03/15 02:53:56;;;;;;;;;;;;;;;3.01;74.18;99969.52;107400;1256;123714;-84
2023/03/15 02:56:23;;;;;;;;;;;;;;;2.96;74.32;99972.95;107391;1257;60858;-84
2023/03/15 02:58:59;;;;;;;;;;;;;;;2.92;74.42;99978.51;107575;1256;123770;-84
2023/03/15 03:01:35;;;;;;;;;;;;;;;2.95;74.62;99989.70;107644;1256;74698;-84
2023/03/15 03:04:05;;;;;;;;;;;;;;;2.98;74.75;99992.08;107610;1256;67247;-84
2023/03/15 03:06:33;;;;;;;;;;;;;;;2.93;74.44;99987.02;107393;1257;124340;-84
2023/03/15 03:09:01;;;;;;;;;;;;;;;2.84;74.44;99991.83;107745;1255;61226;-84
2023/03/15 03:11:35;;;;;;;;;;;;;;;2.73;74.37;100001.24;107715;1256;124318;-84
2023/03/15 03:14:03;;;;;;;;;;;;;;;2.65;74.45;100012.65;107844;1259;72275;-84
2023/03/15 03:16:45;;;;;;;;;;;;;;;2.59;74.56;100022.94;107568;1257;67554;-84
2023/03/15 03:19:12;;;;;;;;;;;;;;;2.52;74.74;100025.23;107724;1256;71305;-84
2023/03/15 03:21:42;;;;;;;;;;;;;;;2.46;74.74;100029.84;107764;1256;60297;-84
2023/03/15 03:24:09;;;;;;;;;;;;;;;2.39;74.73;100038.52;107651;1256;124860;-85
2023/03/15 03:26:37;;;;;;;;;;;;;;;2.33;74.74;100045.33;107482;1256;73026;-84
2023/03/15 03:29:07;;;;;;;;;;;;;;;2.26;74.84;100047.75;107598;1256;124532;-85
2023/03/15 03:31:34;;;;;;;;;;;;;;;2.19;74.89;100056.60;107681;1261;71074;-85
2023/03/15 03:34:01;;;;;;;;;;;;;;;2.15;75.02;100065.25;107701;1255;61145;-85
2023/03/15 03:36:28;;;;;;;;;;;;;;;2.11;75.28;100068.88;107935;1257;125353;-85
2023/03/15 03:38:56;;;;;;;;;;;;;;;2.09;75.27;100072.60;107958;1256;73567;-85
2023/03/15 03:41:23;;;;;;;;;;;;;;;2.09;75.43;100081.23;107712;1256;124980;-85
2023/03/15 03:43:50;;;;;;;;;;;;;;;2.09;75.63;100084.89;107726;1256;73036;-85
2023/03/15 03:46:17;;;;;;;;;;;;;;;2.09;75.67;100090.77;108255;1256;59480;-84
2023/03/15 03:48:44;;;;;;;;;;;;;;;2.08;75.76;100096.09;108106;1255;125693;-84
2023/03/15 03:51:12;;;;;;;;;;;;;;;2.07;75.93;100100.36;108351;1256;74821;-84
2023/03/15 03:53:39;;;;;;;;;;;;;;;2.06;76.05;100108.98;108037;1256;125017;-84
2023/03/15 03:56:07;;;;;;;;;;;;;;;2.04;76.15;100116.81;108059;1256;73675;-85
2023/03/15 03:58:34;;;;;;;;;;;;;;;2.01;76.25;100124.44;107893;1257;59601;-84
2023/03/15 04:01:01;;;;;;;;;;;;;;;2.03;76.64;100132.52;107948;1256;124529;-84
2023/03/15 04:03:27;;;;;;;;;;;;;;;2.10;76.81;100138.41;107886;1255;75167;-85
2023/03/15 04:06:09;;;;;;;;;;;;;;;2.12;76.82;100142.64;107353;1256;124618;-86
2023/03/15 04:08:39;;;;;;;;;;;;;;;2.10;76.73;100149.64;107787;1255;70425;-84
2023/03/15 04:11:06;;;;;;;;;;;;;;;2.08;76.91;100157.86;107782;1255;124832;-84
2023/03/15 04:13:34;;;;;;;;;;;;;;;2.07;76.77;100161.08;107933;1257;60127;-84
2023/03/15 04:16:02;;;;;;;;;;;;;;;2.08;76.93;100162.04;107820;1256;74618;-85
2023/03/15 04:18:31;;;;;;;;;;;;;;;2.12;77.02;100160.48;107842;1255;124631;-87
2023/03/15 04:21:13;;;;;;;;;;;;;;;2.18;77.05;100169.60;108005;1256;71057;-88
2023/03/15 04:23:42;;;;;;;;;;;;;;;2.20;76.90;100172.45;107471;1257;124793;-89
2023/03/15 04:26:15;;;;;;;;;;;;;;;2.23;76.88;100173.64;107660;1255;59914;-88
2023/03/15 04:28:55;;;;;;;;;;;;;;;2.31;76.79;100176.95;107432;1256;73430;-87
2023/03/15 04:31:36;;;;;;;;;;;;;;;2.42;76.76;100182.86;107422;1255;67181;-87
2023/03/15 04:34:09;;;;;;;;;;;;;;;2.40;76.47;100184.35;107403;1255;71950;-88
2023/03/15 04:36:36;;;;;;;;;;;;;;;2.36;76.20;100194.90;107460;1256;124263;-87
2023/03/15 04:39:06;;;;;;;;;;;;;;;2.29;76.21;100192.83;107719;1256;61056;-84
2023/03/15 04:41:47;;;;;;;;;;;;;;;2.23;76.03;100202.40;107852;1255;123956;-84
2023/03/15 04:44:16;;;;;;;;;;;;;;;2.17;75.99;100207.11;107763;1260;67624;-84
2023/03/15 04:46:50;;;;;;;;;;;;;;;2.11;75.99;100208.04;107602;1257;71123;-84
2023/03/15 04:49:34;;;;;;;;;;;;;;;2.05;76.16;100211.36;107517;1257;61134;-84
2023/03/15 04:52:01;;;;;;;;;;;;;;;1.99;76.04;100209.69;108088;1255;59330;-83
2023/03/15 04:54:28;;;;;;;;;;;;;;;1.94;76.10;100210.48;108155;1255;124344;-83
2023/03/15 04:57:01;;;;;;;;;;;;;;;1.89;76.05;100215.06;108098;1257;67125;-83
2023/03/15 04:59:30;;;;;;;;;;;;;;;1.84;76.27;100220.51;107519;1256;124241;-83
2023/03/15 05:01:57;;;;;;;;;;;;;;;1.80;76.16;100221.34;107913;1256;61134;-83
2023/03/15 05:04:24;;;;;;;;;;;;;;;1.76;76.07;100227.20;108169;1256;60596;-83
2023/03/15 05:06:51;;;;;;;;;;;;;;;1.73;76.29;100231.17;108056;1256;124737;-83
2023/03/15 05:09:18;;;;;;;;;;;;;;;1.71;76.24;100236.10;108468;1256;65596;-82
2023/03/15 05:11:45;;;;;;;;;;;;;;;1.70;76.44;100237.78;108227;1256;124905;-83
2023/03/15 05:14:12;;;;;;;;;;;;;;;1.70;76.55;100238.50;108063;1256;61206;-83
2023/03/15 05:16:39;;;;;;;;;;;;;;;1.70;76.45;100246.09;108030;1255;59969;-82
2023/03/15 05:19:07;;;;;;;;;;;;;;;1.69;76.75;100247.75;107996;1256;125101;-83
2023/03/15 05:21:34;;;;;;;;;;;;;;;1.69;76.72;100255.02;108270;1256;65863;-82
2023/03/15 05:24:01;;;;;;;;;;;;;;;1.70;76.82;100257.70;107793;1255;125489;-84
2023/03/15 05:26:28;;;;;;;;;;;;;;;1.73;76.85;100262.85;107766;1256;61129;-85
2023/03/15 05:28:55;;;;;;;;;;;;;;;1.77;77.08;100272.06;107906;1256;125845;-83
2023/03/15 05:31:22;;;;;;;;;;;;;;;1.83;77.16;100279.64;108072;1256;72635;-83
2023/03/15 05:33:53;;;;;;;;;;;;;;;1.93;77.22;100293.48;108450;1256;67089;-82
2023/03/15 05:36:20;;;;;;;;;;;;;;;2.11;77.43;100294.55;108313;1256;125239;-84
2023/03/15 05:38:47;;;;;;;;;;;;;;;2.28;77.42;100299.08;108014;1255;61464;-84
2023/03/15 05:41:16;;;;;;;;;;;;;;;2.44;77.38;100303.16;107731;1255;125165;-82
2023/03/15 05:43:44;;;;;;;;;;;;;;;2.51;76.99;100309.95;107795;1256;73362;-82
2023/03/15 05:46:11;;;;;;;;;;;;;;;2.56;76.98;100316.73;107906;1255;65786;-82
2023/03/15 05:48:38;;;;;;;;;;;;;;;2.64;76.94;100324.23;107726;1256;124655;-82
2023/03/15 05:51:05;;;;;;;;;;;;;;;2.76;77.01;100332.48;107857;1256;59248;-82
2023/03/15 05:53:32;;;;;;;;;;;;;;;2.88;76.85;100330.48;107736;1259;125496;-82
2023/03/15 05:55:59;;;;;;;;;;;;;;;3.03;76.92;100332.73;107983;1256;75850;-84
2023/03/15 05:58:27;;;;;;;;;;;;;;;3.11;76.59;100340.23;107973;1256;65739;-84
2023/03/15 06:00:54;;;;;;;;;;;;;;;3.13;76.17;100342.23;107980;1256;125434;-83
2023/03/15 06:03:22;;;;;;;;;;;;;;;3.12;76.04;100345.49;107867;1255;59584;-82
2023/03/15 06:06:02;;;;;;;;;;;;;;;3.13;76.12;100345.69;107715;1256;125109;-83
2023/03/15 06:08:31;;;;;;;;;;;;;;;3.18;76.07;100351.33;107663;1256;75188;-83
2023/03/15 06:10:58;;;;;;;;;;;;;;;3.20;75.99;100356.78;107404;1257;124514;-82
2023/03/15 06:13:34;;;;;;;;;;;;;;;3.33;75.97;100366.23;107488;1255;71400;-84
2023/03/15 06:16:02;;;;;;;;;;;;;;;3.51;76.00;100372.30;107679;1256;59942;-83
2023/03/15 06:18:31;;;;;;;;;;;;;;;3.66;75.92;100380.11;107487;1256;124587;-82
2023/03/15 06:20:58;;;;;;;;;;;;;;;3.86;75.75;100385.55;107684;1255;73724;-81
2023/03/15 06:23:26;;;;;;;;;;;;;;;3.95;75.29;100387.89;107856;1256;123991;-83
2023/03/15 06:25:53;;;;;;;;;;;;;;;4.03;75.10;100382.83;107687;1256;71809;-84
2023/03/15 06:28:20;;;;;;;;;;;;;;;4.11;74.86;100385.30;107812;1256;61299;-83
2023/03/15 06:30:48;;;;;;;;;;;;;;;4.09;74.41;100384.20;107618;1256;124376;-83
2023/03/15 06:33:17;;;;;;;;;;;;;;;4.03;74.20;100391.91;107815;1257;73418;-82
2023/03/15 06:35:45;;;;;;;;;;;;;;;3.99;74.17;100393.95;107646;1254;124002;-82
2023/03/15 06:38:14;;;;;;;;;;;;;;;3.95;74.02;100397.06;108331;1254;73127;-82
2023/03/15 06:40:42;;;;;;;;;;;;;;;3.88;73.81;100403.56;108401;1259;61132;-81
2023/03/15 06:43:13;;;;;;;;;;;;;;;3.85;73.89;100413.63;108202;1254;124411;-85
2023/03/15 06:45:41;;;;;;;;;;;;;;;3.87;74.00;100418.09;107913;1254;72494;-86
2023/03/15 06:48:08;;;;;;;;;;;;;;;4.01;74.21;100422.36;108050;1254;124574;-86
2023/03/15 06:50:35;;;;;;;;;;;;;;;4.10;74.18;100427.45;107750;1254;72698;-86
2023/03/15 06:53:10;;;;;;;;;;;;;;;4.15;74.07;100429.41;107720;1254;125036;-85
2023/03/15 06:55:39;;;;;;;;;;;;;;;4.21;73.87;100431.27;107796;1254;60505;-85
2023/03/15 06:58:09;;;;;;;;;;;;;;;4.24;73.72;100433.84;107669;1254;73377;-85
2023/03/15 07:00:36;;;;;;;;;;;;;;;4.24;73.50;100438.17;107735;1258;125395;-85
2023/03/15 07:03:22;;;;;;;;;;;;;;;4.24;73.30;100439.35;107689;1254;72683;-85
2023/03/15 07:05:53;;;;;;;;;;;;;;;4.22;73.14;100447.80;107294;1254;125125;-85
2023/03/15 07:08:33;;;;;;;;;;;;;;;4.23;73.13;100454.80;107643;1254;61024;-85
2023/03/15 07:11:05;;;;;;;;;;;;;;;4.26;73.22;100458.39;107314;1259;74455;-85
2023/03/15 07:13:39;;;;;;;;;;;;;;;4.28;73.08;100467.70;107636;1254;66819;-85
2023/03/15 07:16:12;;;;;;;;;;;;;;;4.35;73.25;100474.08;107724;1254;71587;-84
2023/03/15 07:18:46;;;;;;;;;;;;;;;4.59;73.54;100477.94;107558;1255;123936;-84
2023/03/15 07:21:13;;;;;;;;;;;;;;;4.90;73.73;100477.23;107954;1254;60178;-84
2023/03/15 07:23:40;;;;;;;;;;;;;;;5.13;73.27;100478.04;108059;1254;124165;-85
2023/03/15 07:26:13;;;;;;;;;;;;;;;5.26;72.73;100480.84;108335;1254;65761;-85
2023/03/15 07:28:46;;;;;;;;;;;;;;;5.26;72.14;100482.42;107702;1254;71356;-85
2023/03/15 07:31:21;;;;;;;;;;;;;;;5.23;71.85;100484.05;107470;1254;124974;-85
2023/03/15 07:33:48;;;;;;;;;;;;;;;5.15;71.52;100482.27;107970;1254;59574;-85
2023/03/15 07:36:15;;;;;;;;;;;;;;;5.09;71.49;100481.87;107904;1257;124880;-81
2023/03/15 07:38:49;;;;;;;;;;;;;;;5.11;71.66;100480.90;107806;1254;65908;-85
2023/03/15 07:41:17;;;;;;;;;;;;;;;5.14;71.78;100482.07;107611;1254;71395;-85
2023/03/15 07:43:46;;;;;;;;;;;;;;;5.29;71.90;100491.05;108140;1257;59658;-85
2023/03/15 07:46:13;;;;;;;;;;;;;;;5.49;71.71;100502.13;107739;1254;59874;-86
2023/03/15 07:48:57;;;;;;;;;;;;;;;5.65;71.46;100509.94;107655;1254;75205;-85
2023/03/15 07:51:24;;;;;;;;;;;;;;;5.80;71.48;100513.70;107831;1254;66256;-86
2023/03/15 07:53:57;;;;;;;;;;;;;;;5.94;71.15;100518.26;107827;1254;124299;-86
2023/03/15 07:56:24;;;;;;;;;;;;;;;5.97;70.91;100524.84;108002;1254;61378;-85
2023/03/15 07:58:57;;;;;;;;;;;;;;;6.00;70.81;100530.36;107487;1254;60175;-85
2023/03/15 08:01:25;;;;;;;;;;;;;;;6.04;70.66;100539.41;107878;1256;123793;-85
2023/03/15 08:03:53;;;;;;;;;;;;;;;6.01;70.43;100541.23;107562;1254;65478;-85
2023/03/15 08:06:20;;;;;;;;;;;;;;;6.01;70.40;100542.77;107607;1254;123817;-85
2023/03/15 08:08:47;;;;;;;;;;;;;;;6.06;70.40;100552.01;108065;1254;62833;-85
2023/03/15 08:11:16;;;;;;;;;;;;;;;6.07;70.29;100555.54;107793;1254;124182;-85
2023/03/15 08:13:43;;;;;;;;;;;;;;;6.10;70.39;100553.94;108051;1254;73365;-85
2023/03/15 08:16:11;;;;;;;;;;;;;;;6.24;70.40;100558.15;107719;1254;67059;-85
2023/03/15 08:18:38;;;;;;;;;;;;;;;6.29;70.06;100562.68;107665;1254;124394;-81
2023/03/15 08:21:05;;;;;;;;;;;;;;;6.31;69.80;100559.97;107531;1254;60754;-81
2023/03/15 08:23:32;;;;;;;;;;;;;;;6.34;69.60;100561.98;107713;1259;124347;-81
2023/03/15 08:26:00;;;;;;;;;;;;;;;6.35;69.53;100572.00;107791;1254;74862;-84
2023/03/15 08:28:28;;;;;;;;;;;;;;;6.33;69.27;100575.73;107837;1254;67039;-85
2023/03/15 08:31:05;;;;;;;;;;;;;;;6.27;69.09;100579.52;107832;1254;123943;-85
2023/03/15 08:33:32;;;;;;;;;;;;;;;6.25;69.03;100581.71;107870;1254;60953;-81
2023/03/15 08:35:59;;;;;;;;;;;;;;;6.43;69.28;100585.52;107596;1254;124071;-81
2023/03/15 08:38:26;;;;;;;;;;;;;;;6.63;69.26;100592.56;107455;1254;73899;-82
2023/03/15 08:40:56;;;;;;;;;;;;;;;6.77;69.07;100601.14;107903;1254;67144;-81
2023/03/15 08:43:25;;;;;;;;;;;;;;;6.82;68.89;100607.96;108009;1254;124254;-82
2023/03/15 08:45:52;;;;;;;;;;;;;;;6.80;68.49;100611.39;107608;1254;61471;-82
2023/03/15 08:48:20;;;;;;;;;;;;;;;6.75;68.49;100613.80;107453;1254;124590;-81
2023/03/15 08:50:56;;;;;;;;;;;;;;;6.70;68.27;100619.88;107789;1254;74917;-85
2023/03/15 08:53:24;;;;;;;;;;;;;;;6.55;68.03;100620.02;107451;1254;124686;-84
2023/03/15 08:55:58;;;;;;;;;;;;;;;6.51;68.06;100615.67;107696;1254;72697;-82
2023/03/15 08:58:26;;;;;;;;;;;;;;;6.69;68.43;100620.56;107819;1254;61260;-81
2023/03/15 09:00:54;;;;;;;;;;;;;;;6.91;68.32;100618.74;107793;1254;123856;-81
2023/03/15 09:03:21;;;;;;;;;;;;;;;7.02;68.00;100627.03;107495;1254;73430;-85
2023/03/15 09:05:54;;;;;;;;;;;;;;;7.07;67.44;100623.89;107599;1254;124129;-85
2023/03/15 09:08:27;;;;;;;;;;;;;;;7.05;67.22;100637.77;107842;1254;72418;-85
2023/03/15 09:10:55;;;;;;;;;;;;;;;7.04;66.64;100646.79;107809;1254;61859;-81
2023/03/15 09:13:44;;;;;;;;;;;;;;;7.06;66.51;100647.90;107603;1254;124034;-85
2023/03/15 09:16:17;;;;;;;;;;;;;;;7.00;65.79;100645.61;107247;1254;75712;-85
2023/03/15 09:18:50;;;;;;;;;;;;;;;6.97;65.76;100655.80;107612;1254;123790;-86
2023/03/15 09:21:30;;;;;;;;;;;;;;;7.06;65.88;100650.73;107712;1256;71065;-85
2023/03/15 09:24:04;;;;;;;;;;;;;;;7.21;65.65;100658.25;107301;1254;124220;-85
2023/03/15 09:26:32;;;;;;;;;;;;;;;7.18;65.05;100662.86;107614;1254;59906;-86
2023/03/15 09:28:59;;;;;;;;;;;;;;;7.19;64.95;100663.23;107462;1255;73829;-82
2023/03/15 09:31:32;;;;;;;;;;;;;;;7.36;64.98;100664.39;107295;1254;123600;-82
2023/03/15 09:33:59;;;;;;;;;;;;;;;7.52;64.74;100670.23;107702;1254;72671;-82
2023/03/15 09:36:26;;;;;;;;;;;;;;;7.64;64.50;100667.67;107454;1254;124164;-82
2023/03/15 09:38:53;;;;;;;;;;;;;;;7.70;64.26;100671.38;107364;1254;332690;-81
2023/03/15 09:41:40;;;;;;;;;;;;;;;7.71;63.88;100681.20;107636;1254;124314;-85
2023/03/15 09:44:30;;;;;;;;;;;;;;;7.64;63.47;100680.44;107755;1254;66995;-85
2023/03/15 09:47:03;;;;;;;;;;;;;;;7.70;63.47;100684.81;108205;1255;71649;-86
2023/03/15 09:49:34;;;;;;;;;;;;;;;7.82;63.45;100692.23;107958;1254;124817;-85
2023/03/15 09:52:24;;;;;;;;;;;;;;;7.87;63.24;100693.63;107864;1258;61732;-86
2023/03/15 09:55:17;;;;;;;;;;;;;;;7.96;63.19;100703.90;107660;1254;123998;-85
2023/03/15 09:58:03;;;;;;;;;;;;;;;8.20;62.93;100701.91;107459;1254;65669;-86
2023/03/15 10:00:43;;;;;;;;;;;;;;;8.50;63.04;100702.08;107164;1254;124001;-85
2023/03/15 10:03:27;;;;;;;;;;;;;;;8.82;62.88;100703.80;107585;1254;61788;-86
2023/03/15 10:06:14;;;;;;;;;;;;;;;9.06;62.46;100706.61;107534;1256;124020;-86
2023/03/15 10:08:40;;;;;;;;;;;;;;;9.33;61.93;100717.60;107542;1254;73414;-85
2023/03/15 10:11:11;;;;;;;;;;;;;;;9.55;61.38;100708.94;108022;1258;124594;-84
2023/03/15 10:14:05;;;;;;;;;;;;;;;9.65;60.79;100716.23;107510;1254;72069;-85
2023/03/15 10:20:03;;;;;;;;;;;;;;;9.51;59.37;100728.79;107281;1257;59794;-85
2023/03/15 10:22:51;;;;;;;;;;;;;;;9.35;59.13;100722.73;107287;1254;73250;-86
2023/03/15 10:25:24;;;;;;;;;;;;;;;9.35;59.41;100732.89;107410;1258;124010;-86
2023/03/15 10:27:53;;;;;;;;;;;;;;;9.51;59.61;100734.58;107371;1254;72538;-86
2023/03/15 10:30:26;;;;;;;;;;;;;;;9.74;59.74;100736.61;107266;1254;124231;-86
2023/03/15 10:33:04;;;;;;;;;;;;;;;9.87;59.37;100736.80;107348;1257;59847;-86
2023/03/15 10:35:38;;;;;;;;;;;;;;;9.99;59.09;100736.96;107584;1256;124348;-86
2023/03/15 10:38:32;;;;;;;;;;;;;;;10.10;59.14;100741.10;107491;1254;67576;-86
2023/03/15 10:41:00;;;;;;;;;;;;;;;10.18;58.96;100745.35;107693;1257;72708;-86
2023/03/15 10:43:30;;;;;;;;;;;;;;;10.16;58.34;100745.30;107525;1254;124285;-86
2023/03/15 10:46:00;;;;;;;;;;;;;;;9.99;57.34;100743.45;107568;1254;60627;-85
2023/03/15 10:48:37;;;;;;;;;;;;;;;9.88;56.79;100740.88;107536;1258;123907;-85
2023/03/15 10:51:28;;;;;;;;;;;;;;;9.79;56.53;100747.09;107270;1255;66750;-85
2023/03/15 10:54:10;;;;;;;;;;;;;;;9.72;56.52;100751.11;107261;1256;124648;-85
2023/03/15 10:56:42;;;;;;;;;;;;;;;9.75;56.63;100756.64;107175;1256;61277;-85
2023/03/15 10:59:23;;;;;;;;;;;;;;;9.78;56.26;100758.44;107355;1256;60074;-85
2023/03/15 11:01:51;;;;;;;;;;;;;;;9.63;55.88;100758.57;107261;1254;74640;-85
2023/03/15 11:04:39;;;;;;;;;;;;;;;9.38;55.45;100757.83;107351;1256;65564;-84
2023/03/15 11:07:07;;;;;;;;;;;;;;;9.02;55.13;100753.95;107707;1257;124069;-87
2023/03/15 11:09:44;;;;;;;;;;;;;;;8.79;55.48;100756.52;107429;1257;60591;-83
2023/03/15 11:12:15;;;;;;;;;;;;;;;8.57;55.27;100762.13;107368;1257;123874;-84
2023/03/15 11:14:45;;;;;;;;;;;;;;;8.27;55.32;100764.04;107292;1257;73810;-81
2023/03/15 11:17:23;;;;;;;;;;;;;;;8.11;55.83;100762.11;107752;1256;66324;-81
2023/03/15 11:20:24;;;;;;;;;;;;;;;7.96;55.29;100768.90;107450;1254;71091;-82
2023/03/15 11:22:51;;;;;;;;;;;;;;;7.66;54.99;100769.02;107238;1254;61245;-81
2023/03/15 11:25:30;;;;;;;;;;;;;;;7.49;55.20;100769.27;107361;1255;123942;-81
2023/03/15 11:28:03;;;;;;;;;;;;;;;7.37;55.59;100767.61;107479;1256;74043;-81
2023/03/15 11:30:30;;;;;;;;;;;;;;;7.37;55.99;100769.51;107487;1254;124487;-82
2023/03/15 11:33:00;;;;;;;;;;;;;;;7.37;56.13;100771.98;107439;1256;71396;-81
2023/03/15 11:35:47;;;;;;;;;;;;;;;7.42;56.40;100767.45;107646;1254;124138;-82
2023/03/15 11:38:16;;;;;;;;;;;;;;;7.58;56.66;100764.36;107416;1257;60519;-83
2023/03/15 11:40:46;;;;;;;;;;;;;;;7.75;56.55;100767.26;107803;1256;72424;-81
2023/03/15 11:43:45;;;;;;;;;;;;;;;7.87;55.85;100773.13;108430;1257;124299;-83
2023/03/15 11:46:20;;;;;;;;;;;;;;;7.82;54.27;100779.21;107116;1261;71433;-83
2023/03/15 11:48:49;;;;;;;;;;;;;;;7.69;54.50;100778.73;106686;1261;122889;-83
2023/03/15 11:51:16;;;;;;;;;;;;;;;7.63;54.40;100774.51;106838;1261;62243;-81
2023/03/15 11:53:50;;;;;;;;;;;;;;;7.65;54.49;100778.08;106909;1262;124533;-82
2023/03/15 11:56:18;;;;;;;;;;;;;;;7.65;53.92;100779.98;107122;1262;67068;-82
2023/03/15 11:59:02;;;;;;;;;;;;;;;7.59;53.47;100779.09;107227;1262;73094;-82
2023/03/15 12:01:29;;;;;;;;;;;;;;;7.53;53.47;100781.83;107053;1261;123764;-82
2023/03/15 12:04:16;;;;;;;;;;;;;;;7.50;53.39;100782.74;106846;1262;61304;-82
2023/03/15 12:06:43;;;;;;;;;;;;;;;7.46;53.60;100785.59;106850;1262;123985;-82
2023/03/15 12:09:29;;;;;;;;;;;;;;;7.44;53.26;100790.55;107066;1262;66793;-82
2023/03/15 12:11:58;;;;;;;;;;;;;;;7.35;52.94;100802.10;106937;1262;124086;-82
2023/03/15 12:14:31;;;;;;;;;;;;;;;7.27;52.59;100808.23;106967;1265;61366;-81
2023/03/15 12:17:19;;;;;;;;;;;;;;;7.19;52.41;100803.73;106944;1262;60935;-81
2023/03/15 12:19:46;;;;;;;;;;;;;;;7.17;52.33;100803.13;106893;1262;75992;-82
2023/03/15 12:22:18;;;;;;;;;;;;;;;7.19;52.15;100804.11;107408;1255;66781;-81
2023/03/15 12:24:46;;;;;;;;;;;;;;;7.24;52.23;100807.09;107556;1256;123951;-81
2023/03/15 12:27:14;;;;;;;;;;;;;;;7.31;52.05;100813.09;107498;1257;61225;-82
2023/03/15 12:29:43;;;;;;;;;;;;;;;7.37;52.17;100818.77;107325;1257;123900;-82
2023/03/15 12:32:12;;;;;;;;;;;;;;;7.39;51.43;100819.54;107548;1259;73369;-82
2023/03/15 12:34:52;;;;;;;;;;;;;;;7.39;50.61;100829.48;108236;1254;65588;-82
2023/03/15 12:37:45;;;;;;;;;;;;;;;7.43;50.53;100834.34;107523;1257;124383;-82
2023/03/15 12:40:21;;;;;;;;;;;;;;;7.56;50.97;100831.53;107551;1255;61305;-82
2023/03/15 12:42:56;;;;;;;;;;;;;;;7.76;51.16;100829.83;107597;1257;124257;-82
2023/03/15 12:45:26;;;;;;;;;;;;;;;7.97;50.63;100840.92;107755;1257;73039;-82
2023/03/15 12:47:53;;;;;;;;;;;;;;;8.13;50.39;100840.81;107538;1254;124536;-82
2023/03/15 12:50:40;;;;;;;;;;;;;;;8.32;50.15;100839.40;107668;1255;72752;-82
2023/03/15 12:53:27;;;;;;;;;;;;;;;8.49;49.92;100841.09;107498;1255;60929;-82
2023/03/15 12:55:54;;;;;;;;;;;;;;;8.69;50.30;100843.52;107561;1256;62734;-81
2023/03/15 12:58:28;;;;;;;;;;;;;;;8.90;50.24;100844.21;107517;1257;73179;-82
2023/03/15 13:00:56;;;;;;;;;;;;;;;8.97;49.56;100846.73;107345;1256;124687;-82
2023/03/15 13:03:24;;;;;;;;;;;;;;;8.91;49.52;100850.35;107623;1256;73186;-82